sensor_id;sensor_type;location;lat;lon;timestamp;P1;durP1;ratioP1;P2;durP2;ratioP2
70126;SDS011;57491;42.694;23.314;2023-04-01T00:01:18;31.53;;;17.23;;
70126;SDS011;57491;42.694;23.314;2023-04-01T00:03:45;31.40;;;16.33;;
70126;SDS011;57491;42.694;23.314;2023-04-01T00:06:14;30.00;;;15.70;;
70126;SDS011;57491;42.694;23.314;2023-04-01T00:08:42;27.70;;;15.40;;
70126;SDS011;57491;42.694;23.314;2023-04-01T00:11:10;25.05;;;16.23;;
70126;SDS011;57491;42.694;23.314;2023-04-01T00:13:38;25.08;;;15.80;;
70126;SDS011;57491;42.694;23.314;2023-04-01T00:16:06;28.83;;;17.17;;
70126;SDS011;57491;42.694;23.314;2023-04-01T00:18:33;25.30;;;14.25;;
70126;SDS011;57491;42.694;23.314;2023-04-01T00:21:01;27.55;;;14.85;;
70126;SDS011;57491;42.694;23.314;2023-04-01T00:23:28;26.73;;;13.57;;
70126;SDS011;57491;42.694;23.314;2023-04-01T00:25:55;21.17;;;13.73;;
70126;SDS011;57491;42.694;23.314;2023-04-01T00:28:25;24.67;;;13.80;;
70126;SDS011;57491;42.694;23.314;2023-04-01T00:30:53;22.52;;;13.23;;
70126;SDS011;57491;42.694;23.314;2023-04-01T00:33:21;21.38;;;12.88;;
70126;SDS011;57491;42.694;23.314;2023-04-01T00:35:48;21.85;;;11.80;;
70126;SDS011;57491;42.694;23.314;2023-04-01T00:38:15;19.40;;;10.68;;
70126;SDS011;57491;42.694;23.314;2023-04-01T00:40:45;20.48;;;11.00;;
70126;SDS011;57491;42.694;23.314;2023-04-01T00:43:14;19.48;;;11.07;;
70126;SDS011;57491;42.694;23.314;2023-04-01T00:45:44;18.55;;;10.80;;
70126;SDS011;57491;42.694;23.314;2023-04-01T00:48:15;20.42;;;10.85;;
70126;SDS011;57491;42.694;23.314;2023-04-01T00:50:47;23.20;;;12.15;;
70126;SDS011;57491;42.694;23.314;2023-04-01T00:53:18;20.63;;;11.43;;
70126;SDS011;57491;42.694;23.314;2023-04-01T00:55:49;20.15;;;11.68;;
70126;SDS011;57491;42.694;23.314;2023-04-01T00:58:21;18.45;;;10.68;;
70126;SDS011;57491;42.694;23.314;2023-04-01T01:00:50;21.00;;;12.32;;
70126;SDS011;57491;42.694;23.314;2023-04-01T01:03:20;19.33;;;11.25;;
70126;SDS011;57491;42.694;23.314;2023-04-01T01:05:52;23.88;;;12.65;;
70126;SDS011;57491;42.694;23.314;2023-04-01T01:08:52;20.98;;;11.77;;
70126;SDS011;57491;42.694;23.314;2023-04-01T01:11:30;18.08;;;10.95;;
70126;SDS011;57491;42.694;23.314;2023-04-01T01:14:04;16.80;;;11.90;;
70126;SDS011;57491;42.694;23.314;2023-04-01T01:16:40;21.65;;;11.30;;
70126;SDS011;57491;42.694;23.314;2023-04-01T01:19:18;22.58;;;11.95;;
70126;SDS011;57491;42.694;23.314;2023-04-01T01:22:11;20.77;;;11.90;;
70126;SDS011;57491;42.694;23.314;2023-04-01T01:25:10;18.17;;;10.80;;
70126;SDS011;57491;42.694;23.314;2023-04-01T01:27:48;20.85;;;10.77;;
70126;SDS011;57491;42.694;23.314;2023-04-01T01:30:28;17.75;;;10.10;;
70126;SDS011;57491;42.694;23.314;2023-04-01T01:33:09;19.50;;;10.23;;
70126;SDS011;57491;42.694;23.314;2023-04-01T01:35:58;16.92;;;9.57;;
70126;SDS011;57491;42.694;23.314;2023-04-01T01:38:29;20.35;;;9.48;;
70126;SDS011;57491;42.694;23.314;2023-04-01T01:41:00;16.88;;;8.18;;
70126;SDS011;57491;42.694;23.314;2023-04-01T01:43:31;17.33;;;8.73;;
70126;SDS011;57491;42.694;23.314;2023-04-01T01:46:04;16.80;;;9.25;;
70126;SDS011;57491;42.694;23.314;2023-04-01T01:48:34;17.08;;;8.77;;
70126;SDS011;57491;42.694;23.314;2023-04-01T01:51:04;16.42;;;8.25;;
70126;SDS011;57491;42.694;23.314;2023-04-01T01:53:32;16.40;;;9.40;;
70126;SDS011;57491;42.694;23.314;2023-04-01T01:55:59;15.48;;;7.78;;
70126;SDS011;57491;42.694;23.314;2023-04-01T01:58:27;15.52;;;7.93;;
70126;SDS011;57491;42.694;23.314;2023-04-01T02:01:01;15.38;;;7.18;;
70126;SDS011;57491;42.694;23.314;2023-04-01T02:03:33;12.85;;;7.28;;
70126;SDS011;57491;42.694;23.314;2023-04-01T02:06:02;14.13;;;7.85;;
70126;SDS011;57491;42.694;23.314;2023-04-01T02:08:34;13.75;;;7.57;;
70126;SDS011;57491;42.694;23.314;2023-04-01T02:11:04;15.45;;;7.38;;
70126;SDS011;57491;42.694;23.314;2023-04-01T02:13:33;18.25;;;7.57;;
70126;SDS011;57491;42.694;23.314;2023-04-01T02:16:05;16.58;;;7.00;;
70126;SDS011;57491;42.694;23.314;2023-04-01T02:18:38;11.77;;;7.28;;
70126;SDS011;57491;42.694;23.314;2023-04-01T02:21:07;15.35;;;8.13;;
70126;SDS011;57491;42.694;23.314;2023-04-01T02:23:36;12.05;;;7.28;;
70126;SDS011;57491;42.694;23.314;2023-04-01T02:26:05;17.52;;;8.00;;
70126;SDS011;57491;42.694;23.314;2023-04-01T02:28:34;18.88;;;8.02;;
70126;SDS011;57491;42.694;23.314;2023-04-01T02:31:04;12.93;;;7.55;;
70126;SDS011;57491;42.694;23.314;2023-04-01T02:33:33;16.85;;;8.57;;
70126;SDS011;57491;42.694;23.314;2023-04-01T02:36:00;14.07;;;8.13;;
70126;SDS011;57491;42.694;23.314;2023-04-01T02:38:29;13.97;;;8.30;;
70126;SDS011;57491;42.694;23.314;2023-04-01T02:40:57;18.90;;;7.72;;
70126;SDS011;57491;42.694;23.314;2023-04-01T02:43:25;12.32;;;7.93;;
70126;SDS011;57491;42.694;23.314;2023-04-01T02:45:52;13.95;;;7.72;;
70126;SDS011;57491;42.694;23.314;2023-04-01T02:48:19;22.40;;;8.55;;
70126;SDS011;57491;42.694;23.314;2023-04-01T02:50:46;16.23;;;8.30;;
70126;SDS011;57491;42.694;23.314;2023-04-01T02:53:13;14.43;;;7.80;;
70126;SDS011;57491;42.694;23.314;2023-04-01T02:55:44;16.50;;;9.25;;
70126;SDS011;57491;42.694;23.314;2023-04-01T02:58:12;17.85;;;8.40;;
70126;SDS011;57491;42.694;23.314;2023-04-01T03:00:39;17.90;;;8.50;;
70126;SDS011;57491;42.694;23.314;2023-04-01T03:03:06;17.70;;;9.25;;
70126;SDS011;57491;42.694;23.314;2023-04-01T03:05:34;17.90;;;9.13;;
70126;SDS011;57491;42.694;23.314;2023-04-01T03:08:01;17.23;;;9.00;;
70126;SDS011;57491;42.694;23.314;2023-04-01T03:10:29;18.98;;;9.52;;
70126;SDS011;57491;42.694;23.314;2023-04-01T03:12:57;19.60;;;10.40;;
70126;SDS011;57491;42.694;23.314;2023-04-01T03:15:24;19.05;;;9.98;;
70126;SDS011;57491;42.694;23.314;2023-04-01T03:17:51;16.70;;;9.82;;
70126;SDS011;57491;42.694;23.314;2023-04-01T03:20:18;18.13;;;10.30;;
70126;SDS011;57491;42.694;23.314;2023-04-01T03:22:45;18.00;;;10.65;;
70126;SDS011;57491;42.694;23.314;2023-04-01T03:25:12;15.63;;;10.27;;
70126;SDS011;57491;42.694;23.314;2023-04-01T03:27:40;20.20;;;10.77;;
70126;SDS011;57491;42.694;23.314;2023-04-01T03:30:09;18.85;;;11.45;;
70126;SDS011;57491;42.694;23.314;2023-04-01T03:32:36;22.38;;;10.68;;
70126;SDS011;57491;42.694;23.314;2023-04-01T03:35:04;22.50;;;11.93;;
70126;SDS011;57491;42.694;23.314;2023-04-01T03:37:31;17.13;;;11.25;;
70126;SDS011;57491;42.694;23.314;2023-04-01T03:39:58;24.52;;;11.43;;
70126;SDS011;57491;42.694;23.314;2023-04-01T03:42:25;17.92;;;10.88;;
70126;SDS011;57491;42.694;23.314;2023-04-01T03:44:52;19.50;;;11.43;;
70126;SDS011;57491;42.694;23.314;2023-04-01T03:47:21;21.33;;;11.10;;
70126;SDS011;57491;42.694;23.314;2023-04-01T03:49:48;16.15;;;9.38;;
70126;SDS011;57491;42.694;23.314;2023-04-01T03:52:15;16.92;;;10.80;;
70126;SDS011;57491;42.694;23.314;2023-04-01T03:54:42;20.02;;;10.23;;
70126;SDS011;57491;42.694;23.314;2023-04-01T03:57:09;17.73;;;9.57;;
70126;SDS011;57491;42.694;23.314;2023-04-01T03:59:36;14.07;;;8.38;;
70126;SDS011;57491;42.694;23.314;2023-04-01T04:02:03;18.73;;;10.13;;
70126;SDS011;57491;42.694;23.314;2023-04-01T04:04:32;18.10;;;10.23;;
70126;SDS011;57491;42.694;23.314;2023-04-01T04:06:59;15.05;;;8.90;;
70126;SDS011;57491;42.694;23.314;2023-04-01T04:09:26;17.80;;;9.83;;
70126;SDS011;57491;42.694;23.314;2023-04-01T04:11:53;15.02;;;8.65;;
70126;SDS011;57491;42.694;23.314;2023-04-01T04:14:20;16.27;;;9.47;;
70126;SDS011;57491;42.694;23.314;2023-04-01T04:16:47;14.60;;;9.68;;
70126;SDS011;57491;42.694;23.314;2023-04-01T04:19:14;20.80;;;10.47;;
70126;SDS011;57491;42.694;23.314;2023-04-01T04:21:46;18.25;;;10.57;;
70126;SDS011;57491;42.694;23.314;2023-04-01T04:24:13;18.27;;;9.55;;
70126;SDS011;57491;42.694;23.314;2023-04-01T04:26:40;18.05;;;9.10;;
70126;SDS011;57491;42.694;23.314;2023-04-01T04:29:07;17.40;;;8.77;;
70126;SDS011;57491;42.694;23.314;2023-04-01T04:31:34;15.85;;;10.02;;
70126;SDS011;57491;42.694;23.314;2023-04-01T04:34:01;13.45;;;8.25;;
70126;SDS011;57491;42.694;23.314;2023-04-01T04:36:28;13.55;;;8.32;;
70126;SDS011;57491;42.694;23.314;2023-04-01T04:38:57;16.40;;;8.15;;
70126;SDS011;57491;42.694;23.314;2023-04-01T04:41:27;14.10;;;8.52;;
70126;SDS011;57491;42.694;23.314;2023-04-01T04:43:55;15.52;;;9.30;;
70126;SDS011;57491;42.694;23.314;2023-04-01T04:46:24;15.07;;;9.07;;
70126;SDS011;57491;42.694;23.314;2023-04-01T04:48:51;16.77;;;8.00;;
70126;SDS011;57491;42.694;23.314;2023-04-01T04:51:18;13.15;;;8.35;;
70126;SDS011;57491;42.694;23.314;2023-04-01T04:53:46;14.15;;;8.45;;
70126;SDS011;57491;42.694;23.314;2023-04-01T04:56:18;16.20;;;8.73;;
70126;SDS011;57491;42.694;23.314;2023-04-01T04:58:46;18.90;;;8.52;;
70126;SDS011;57491;42.694;23.314;2023-04-01T05:01:14;18.97;;;8.57;;
70126;SDS011;57491;42.694;23.314;2023-04-01T05:03:42;13.90;;;7.90;;
70126;SDS011;57491;42.694;23.314;2023-04-01T05:06:12;12.10;;;7.50;;
70126;SDS011;57491;42.694;23.314;2023-04-01T05:08:40;15.95;;;7.53;;
70126;SDS011;57491;42.694;23.314;2023-04-01T05:11:09;12.18;;;7.07;;
70126;SDS011;57491;42.694;23.314;2023-04-01T05:13:40;15.90;;;7.68;;
70126;SDS011;57491;42.694;23.314;2023-04-01T05:16:07;13.60;;;8.38;;
70126;SDS011;57491;42.694;23.314;2023-04-01T05:18:35;11.90;;;6.72;;
70126;SDS011;57491;42.694;23.314;2023-04-01T05:21:03;14.90;;;6.10;;
70126;SDS011;57491;42.694;23.314;2023-04-01T05:23:30;13.07;;;6.53;;
70126;SDS011;57491;42.694;23.314;2023-04-01T05:25:58;13.73;;;6.50;;
70126;SDS011;57491;42.694;23.314;2023-04-01T05:28:25;12.77;;;6.32;;
70126;SDS011;57491;42.694;23.314;2023-04-01T05:30:54;11.93;;;6.50;;
70126;SDS011;57491;42.694;23.314;2023-04-01T05:33:21;13.07;;;7.50;;
70126;SDS011;57491;42.694;23.314;2023-04-01T05:35:48;16.23;;;7.22;;
70126;SDS011;57491;42.694;23.314;2023-04-01T05:38:15;13.02;;;7.65;;
70126;SDS011;57491;42.694;23.314;2023-04-01T05:40:42;13.88;;;6.97;;
70126;SDS011;57491;42.694;23.314;2023-04-01T05:43:09;10.80;;;6.28;;
70126;SDS011;57491;42.694;23.314;2023-04-01T05:45:36;15.55;;;6.35;;
70126;SDS011;57491;42.694;23.314;2023-04-01T05:48:05;16.63;;;6.85;;
70126;SDS011;57491;42.694;23.314;2023-04-01T05:50:32;10.50;;;6.78;;
70126;SDS011;57491;42.694;23.314;2023-04-01T05:52:59;8.73;;;5.57;;
70126;SDS011;57491;42.694;23.314;2023-04-01T05:55:26;12.07;;;5.73;;
70126;SDS011;57491;42.694;23.314;2023-04-01T05:57:53;8.90;;;5.60;;
70126;SDS011;57491;42.694;23.314;2023-04-01T06:00:20;13.38;;;6.20;;
70126;SDS011;57491;42.694;23.314;2023-04-01T06:02:47;12.17;;;5.47;;
70126;SDS011;57491;42.694;23.314;2023-04-01T06:05:17;13.73;;;4.97;;
70126;SDS011;57491;42.694;23.314;2023-04-01T06:07:45;11.55;;;6.63;;
70126;SDS011;57491;42.694;23.314;2023-04-01T06:10:14;8.02;;;4.70;;
70126;SDS011;57491;42.694;23.314;2023-04-01T06:12:56;11.50;;;4.88;;
70126;SDS011;57491;42.694;23.314;2023-04-01T06:15:36;10.80;;;5.43;;
70126;SDS011;57491;42.694;23.314;2023-04-01T06:18:20;11.35;;;4.50;;
70126;SDS011;57491;42.694;23.314;2023-04-01T06:21:09;9.85;;;5.05;;
70126;SDS011;57491;42.694;23.314;2023-04-01T06:23:59;14.35;;;5.40;;
70126;SDS011;57491;42.694;23.314;2023-04-01T06:26:39;10.15;;;5.88;;
70126;SDS011;57491;42.694;23.314;2023-04-01T06:32:10;10.55;;;6.10;;
70126;SDS011;57491;42.694;23.314;2023-04-01T06:34:59;9.00;;;4.70;;
70126;SDS011;57491;42.694;23.314;2023-04-01T06:43:37;9.10;;;5.00;;
70126;SDS011;57491;42.694;23.314;2023-04-01T06:46:15;8.60;;;4.57;;
70126;SDS011;57491;42.694;23.314;2023-04-01T06:48:55;9.38;;;6.03;;
70126;SDS011;57491;42.694;23.314;2023-04-01T06:51:35;12.05;;;5.85;;
70126;SDS011;57491;42.694;23.314;2023-04-01T06:54:13;12.93;;;7.55;;
70126;SDS011;57491;42.694;23.314;2023-04-01T06:56:44;14.23;;;6.00;;
70126;SDS011;57491;42.694;23.314;2023-04-01T06:59:15;13.65;;;5.65;;
70126;SDS011;57491;42.694;23.314;2023-04-01T07:01:45;12.52;;;5.15;;
70126;SDS011;57491;42.694;23.314;2023-04-01T07:04:16;15.63;;;5.60;;
70126;SDS011;57491;42.694;23.314;2023-04-01T07:06:47;9.73;;;5.72;;
70126;SDS011;57491;42.694;23.314;2023-04-01T07:09:20;11.15;;;5.38;;
70126;SDS011;57491;42.694;23.314;2023-04-01T07:11:51;10.68;;;4.97;;
70126;SDS011;57491;42.694;23.314;2023-04-01T07:14:24;15.57;;;5.72;;
70126;SDS011;57491;42.694;23.314;2023-04-01T07:16:56;11.30;;;5.60;;
70126;SDS011;57491;42.694;23.314;2023-04-01T07:19:29;15.55;;;5.72;;
70126;SDS011;57491;42.694;23.314;2023-04-01T07:22:03;12.45;;;6.45;;
70126;SDS011;57491;42.694;23.314;2023-04-01T07:24:34;9.68;;;5.20;;
70126;SDS011;57491;42.694;23.314;2023-04-01T07:27:05;17.20;;;5.95;;
70126;SDS011;57491;42.694;23.314;2023-04-01T07:29:36;9.80;;;5.30;;
70126;SDS011;57491;42.694;23.314;2023-04-01T07:32:14;11.83;;;5.40;;
70126;SDS011;57491;42.694;23.314;2023-04-01T07:34:52;13.57;;;6.13;;
70126;SDS011;57491;42.694;23.314;2023-04-01T07:37:29;12.70;;;7.03;;
70126;SDS011;57491;42.694;23.314;2023-04-01T07:40:05;15.52;;;6.57;;
70126;SDS011;57491;42.694;23.314;2023-04-01T07:42:45;9.80;;;6.50;;
70126;SDS011;57491;42.694;23.314;2023-04-01T07:45:24;9.88;;;5.95;;
70126;SDS011;57491;42.694;23.314;2023-04-01T07:48:02;11.40;;;5.38;;
70126;SDS011;57491;42.694;23.314;2023-04-01T07:50:41;10.38;;;6.22;;
70126;SDS011;57491;42.694;23.314;2023-04-01T07:53:16;13.70;;;6.43;;
70126;SDS011;57491;42.694;23.314;2023-04-01T07:55:53;13.43;;;6.30;;
70126;SDS011;57491;42.694;23.314;2023-04-01T07:58:28;11.65;;;6.20;;
70126;SDS011;57491;42.694;23.314;2023-04-01T08:01:04;12.95;;;6.28;;
70126;SDS011;57491;42.694;23.314;2023-04-01T08:03:40;11.25;;;5.88;;
70126;SDS011;57491;42.694;23.314;2023-04-01T08:06:24;8.93;;;5.95;;
70126;SDS011;57491;42.694;23.314;2023-04-01T08:08:57;11.95;;;6.57;;
70126;SDS011;57491;42.694;23.314;2023-04-01T08:11:37;10.45;;;6.43;;
70126;SDS011;57491;42.694;23.314;2023-04-01T08:14:17;12.52;;;5.78;;
70126;SDS011;57491;42.694;23.314;2023-04-01T08:16:54;16.10;;;5.70;;
70126;SDS011;57491;42.694;23.314;2023-04-01T08:19:30;12.85;;;5.63;;
70126;SDS011;57491;42.694;23.314;2023-04-01T08:22:08;11.50;;;6.18;;
70126;SDS011;57491;42.694;23.314;2023-04-01T08:24:41;10.85;;;6.25;;
70126;SDS011;57491;42.694;23.314;2023-04-01T08:27:11;9.30;;;5.38;;
70126;SDS011;57491;42.694;23.314;2023-04-01T08:29:44;9.55;;;5.53;;
70126;SDS011;57491;42.694;23.314;2023-04-01T08:32:18;15.15;;;6.03;;
70126;SDS011;57491;42.694;23.314;2023-04-01T08:34:51;9.50;;;6.32;;
70126;SDS011;57491;42.694;23.314;2023-04-01T08:37:25;11.93;;;5.65;;
70126;SDS011;57491;42.694;23.314;2023-04-01T08:39:58;14.05;;;6.95;;
70126;SDS011;57491;42.694;23.314;2023-04-01T08:45:29;11.95;;;6.05;;
70126;SDS011;57491;42.694;23.314;2023-04-01T08:48:19;11.85;;;5.60;;
70126;SDS011;57491;42.694;23.314;2023-04-01T08:51:09;10.23;;;5.10;;
70126;SDS011;57491;42.694;23.314;2023-04-01T08:54:01;13.90;;;5.28;;
70126;SDS011;57491;42.694;23.314;2023-04-01T08:56:39;14.98;;;6.53;;
70126;SDS011;57491;42.694;23.314;2023-04-01T09:05:19;10.48;;;4.22;;
70126;SDS011;57491;42.694;23.314;2023-04-01T09:08:01;7.20;;;4.15;;
70126;SDS011;57491;42.694;23.314;2023-04-01T09:10:45;7.05;;;4.32;;
70126;SDS011;57491;42.694;23.314;2023-04-01T09:13:27;6.72;;;4.00;;
70126;SDS011;57491;42.694;23.314;2023-04-01T09:19:24;10.57;;;4.15;;
70126;SDS011;57491;42.694;23.314;2023-04-01T09:22:07;13.18;;;4.80;;
70126;SDS011;57491;42.694;23.314;2023-04-01T09:27:56;5.10;;;3.80;;
70126;SDS011;57491;42.694;23.314;2023-04-01T09:30:31;14.27;;;4.70;;
70126;SDS011;57491;42.694;23.314;2023-04-01T09:36:16;8.02;;;4.22;;
70126;SDS011;57491;42.694;23.314;2023-04-01T09:38:56;12.07;;;4.05;;
70126;SDS011;57491;42.694;23.314;2023-04-01T09:41:29;10.52;;;4.53;;
70126;SDS011;57491;42.694;23.314;2023-04-01T09:44:02;7.93;;;4.10;;
70126;SDS011;57491;42.694;23.314;2023-04-01T09:46:44;8.10;;;3.50;;
70126;SDS011;57491;42.694;23.314;2023-04-01T09:49:28;11.40;;;4.30;;
70126;SDS011;57491;42.694;23.314;2023-04-01T09:52:18;5.87;;;3.67;;
70126;SDS011;57491;42.694;23.314;2023-04-01T09:54:56;9.13;;;3.67;;
70126;SDS011;57491;42.694;23.314;2023-04-01T09:57:41;8.57;;;3.45;;
70126;SDS011;57491;42.694;23.314;2023-04-01T10:00:55;9.60;;;3.97;;
70126;SDS011;57491;42.694;23.314;2023-04-01T10:04:03;11.43;;;3.75;;
70126;SDS011;57491;42.694;23.314;2023-04-01T10:07:15;8.98;;;4.35;;
70126;SDS011;57491;42.694;23.314;2023-04-01T10:16:24;7.15;;;4.25;;
70126;SDS011;57491;42.694;23.314;2023-04-01T10:25:26;10.40;;;4.22;;
70126;SDS011;57491;42.694;23.314;2023-04-01T10:34:38;6.95;;;3.60;;
70126;SDS011;57491;42.694;23.314;2023-04-01T10:40:28;8.43;;;4.57;;
70126;SDS011;57491;42.694;23.314;2023-04-01T10:49:32;8.05;;;4.53;;
70126;SDS011;57491;42.694;23.314;2023-04-01T10:55:15;7.90;;;4.60;;
70126;SDS011;57491;42.694;23.314;2023-04-01T10:58:02;11.02;;;5.35;;
70126;SDS011;57491;42.694;23.314;2023-04-01T11:04:02;5.47;;;3.88;;
70126;SDS011;57491;42.694;23.314;2023-04-01T11:10:12;9.00;;;4.95;;
70126;SDS011;57491;42.694;23.314;2023-04-01T11:16:07;6.53;;;4.65;;
70126;SDS011;57491;42.694;23.314;2023-04-01T11:19:02;8.77;;;5.05;;
70126;SDS011;57491;42.694;23.314;2023-04-01T11:21:53;10.93;;;6.75;;
70126;SDS011;57491;42.694;23.314;2023-04-01T11:27:40;7.32;;;4.35;;
70126;SDS011;57491;42.694;23.314;2023-04-01T11:30:24;10.05;;;5.30;;
70126;SDS011;57491;42.694;23.314;2023-04-01T11:33:07;7.93;;;4.40;;
70126;SDS011;57491;42.694;23.314;2023-04-01T11:35:48;10.98;;;2.45;;
70126;SDS011;57491;42.694;23.314;2023-04-01T11:38:30;9.45;;;2.22;;
70126;SDS011;57491;42.694;23.314;2023-04-01T11:41:12;7.03;;;2.40;;
70126;SDS011;57491;42.694;23.314;2023-04-01T11:43:52;7.88;;;2.22;;
70126;SDS011;57491;42.694;23.314;2023-04-01T11:46:39;4.57;;;2.28;;
70126;SDS011;57491;42.694;23.314;2023-04-01T11:49:22;7.85;;;4.20;;
70126;SDS011;57491;42.694;23.314;2023-04-01T11:52:03;5.15;;;2.78;;
70126;SDS011;57491;42.694;23.314;2023-04-01T11:54:55;6.03;;;2.70;;
70126;SDS011;57491;42.694;23.314;2023-04-01T11:57:37;6.28;;;2.72;;
70126;SDS011;57491;42.694;23.314;2023-04-01T12:00:22;6.68;;;3.05;;
70126;SDS011;57491;42.694;23.314;2023-04-01T12:03:17;5.80;;;3.78;;
70126;SDS011;57491;42.694;23.314;2023-04-01T12:08:31;11.07;;;4.55;;
70126;SDS011;57491;42.694;23.314;2023-04-01T12:11:09;10.95;;;4.43;;
70126;SDS011;57491;42.694;23.314;2023-04-01T12:13:45;8.60;;;4.28;;
70126;SDS011;57491;42.694;23.314;2023-04-01T12:16:23;8.98;;;3.88;;
70126;SDS011;57491;42.694;23.314;2023-04-01T12:19:07;6.38;;;4.05;;
70126;SDS011;57491;42.694;23.314;2023-04-01T12:21:43;9.40;;;3.60;;
70126;SDS011;57491;42.694;23.314;2023-04-01T12:24:25;8.43;;;4.25;;
70126;SDS011;57491;42.694;23.314;2023-04-01T12:27:08;14.73;;;4.57;;
70126;SDS011;57491;42.694;23.314;2023-04-01T12:29:54;7.53;;;4.72;;
70126;SDS011;57491;42.694;23.314;2023-04-01T12:32:43;9.52;;;3.30;;
70126;SDS011;57491;42.694;23.314;2023-04-01T12:35:24;6.72;;;3.58;;
70126;SDS011;57491;42.694;23.314;2023-04-01T12:38:03;9.18;;;4.20;;
70126;SDS011;57491;42.694;23.314;2023-04-01T12:41:02;13.63;;;5.43;;
70126;SDS011;57491;42.694;23.314;2023-04-01T12:43:42;9.40;;;3.83;;
70126;SDS011;57491;42.694;23.314;2023-04-01T12:46:29;8.65;;;4.38;;
70126;SDS011;57491;42.694;23.314;2023-04-01T12:49:08;9.30;;;4.72;;
70126;SDS011;57491;42.694;23.314;2023-04-01T12:54:59;6.78;;;4.60;;
70126;SDS011;57491;42.694;23.314;2023-04-01T12:57:53;9.70;;;5.75;;
70126;SDS011;57491;42.694;23.314;2023-04-01T13:00:44;9.43;;;5.95;;
70126;SDS011;57491;42.694;23.314;2023-04-01T13:03:26;12.45;;;8.50;;
70126;SDS011;57491;42.694;23.314;2023-04-01T13:06:22;21.13;;;12.90;;
70126;SDS011;57491;42.694;23.314;2023-04-01T13:09:03;12.63;;;5.15;;
70126;SDS011;57491;42.694;23.314;2023-04-01T13:11:47;10.95;;;4.82;;
70126;SDS011;57491;42.694;23.314;2023-04-01T13:14:30;7.90;;;5.00;;
70126;SDS011;57491;42.694;23.314;2023-04-01T13:17:17;9.82;;;6.03;;
70126;SDS011;57491;42.694;23.314;2023-04-01T13:19:50;10.73;;;6.30;;
70126;SDS011;57491;42.694;23.314;2023-04-01T13:22:21;12.18;;;5.68;;
70126;SDS011;57491;42.694;23.314;2023-04-01T13:24:57;8.60;;;5.05;;
70126;SDS011;57491;42.694;23.314;2023-04-01T13:27:33;9.50;;;4.55;;
70126;SDS011;57491;42.694;23.314;2023-04-01T13:30:12;8.73;;;4.18;;
70126;SDS011;57491;42.694;23.314;2023-04-01T13:32:54;8.10;;;4.32;;
70126;SDS011;57491;42.694;23.314;2023-04-01T13:35:30;6.47;;;4.63;;
70126;SDS011;57491;42.694;23.314;2023-04-01T13:38:10;8.18;;;4.13;;
70126;SDS011;57491;42.694;23.314;2023-04-01T13:40:50;8.38;;;4.90;;
70126;SDS011;57491;42.694;23.314;2023-04-01T13:43:22;6.50;;;2.83;;
70126;SDS011;57491;42.694;23.314;2023-04-01T13:46:02;3.85;;;2.70;;
70126;SDS011;57491;42.694;23.314;2023-04-01T13:48:42;6.93;;;3.63;;
70126;SDS011;57491;42.694;23.314;2023-04-01T13:51:24;6.25;;;3.30;;
70126;SDS011;57491;42.694;23.314;2023-04-01T13:54:24;5.75;;;2.88;;
70126;SDS011;57491;42.694;23.314;2023-04-01T13:57:26;3.47;;;2.15;;
70126;SDS011;57491;42.694;23.314;2023-04-01T14:00:07;2.97;;;1.60;;
70126;SDS011;57491;42.694;23.314;2023-04-01T14:03:08;1.70;;;1.40;;
70126;SDS011;57491;42.694;23.314;2023-04-01T14:05:59;3.63;;;2.08;;
70126;SDS011;57491;42.694;23.314;2023-04-01T14:08:36;2.35;;;1.25;;
70126;SDS011;57491;42.694;23.314;2023-04-01T14:11:17;1.60;;;1.15;;
70126;SDS011;57491;42.694;23.314;2023-04-01T14:13:52;2.25;;;1.40;;
70126;SDS011;57491;42.694;23.314;2023-04-01T14:16:48;1.92;;;1.30;;
70126;SDS011;57491;42.694;23.314;2023-04-01T14:19:31;3.95;;;1.30;;
70126;SDS011;57491;42.694;23.314;2023-04-01T14:22:13;2.60;;;1.70;;
70126;SDS011;57491;42.694;23.314;2023-04-01T14:28:29;4.35;;;2.10;;
70126;SDS011;57491;42.694;23.314;2023-04-01T14:31:12;7.18;;;3.38;;
70126;SDS011;57491;42.694;23.314;2023-04-01T14:34:00;7.38;;;4.32;;
70126;SDS011;57491;42.694;23.314;2023-04-01T14:36:46;7.68;;;3.55;;
70126;SDS011;57491;42.694;23.314;2023-04-01T14:39:26;8.60;;;3.75;;
70126;SDS011;57491;42.694;23.314;2023-04-01T14:42:11;10.73;;;3.58;;
70126;SDS011;57491;42.694;23.314;2023-04-01T14:45:02;7.32;;;4.10;;
70126;SDS011;57491;42.694;23.314;2023-04-01T14:50:20;10.20;;;4.45;;
70126;SDS011;57491;42.694;23.314;2023-04-01T14:52:55;8.02;;;4.70;;
70126;SDS011;57491;42.694;23.314;2023-04-01T14:55:27;5.07;;;3.13;;
70126;SDS011;57491;42.694;23.314;2023-04-01T14:58:00;8.15;;;5.45;;
70126;SDS011;57491;42.694;23.314;2023-04-01T15:03:26;7.72;;;4.15;;
70126;SDS011;57491;42.694;23.314;2023-04-01T15:06:12;6.03;;;3.38;;
70126;SDS011;57491;42.694;23.314;2023-04-01T15:08:55;6.38;;;4.10;;
70126;SDS011;57491;42.694;23.314;2023-04-01T15:11:33;8.65;;;4.45;;
70126;SDS011;57491;42.694;23.314;2023-04-01T15:14:18;7.85;;;4.85;;
70126;SDS011;57491;42.694;23.314;2023-04-01T15:17:12;11.02;;;3.88;;
70126;SDS011;57491;42.694;23.314;2023-04-01T15:19:54;6.43;;;4.00;;
70126;SDS011;57491;42.694;23.314;2023-04-01T15:22:43;7.32;;;3.60;;
70126;SDS011;57491;42.694;23.314;2023-04-01T15:25:25;13.38;;;7.30;;
70126;SDS011;57491;42.694;23.314;2023-04-01T15:28:07;7.53;;;4.18;;
70126;SDS011;57491;42.694;23.314;2023-04-01T15:30:44;9.10;;;3.80;;
70126;SDS011;57491;42.694;23.314;2023-04-01T15:33:31;10.52;;;4.60;;
70126;SDS011;57491;42.694;23.314;2023-04-01T15:36:26;5.60;;;3.50;;
70126;SDS011;57491;42.694;23.314;2023-04-01T15:39:05;6.95;;;3.70;;
70126;SDS011;57491;42.694;23.314;2023-04-01T15:41:42;6.95;;;3.17;;
70126;SDS011;57491;42.694;23.314;2023-04-01T15:44:30;8.05;;;3.70;;
70126;SDS011;57491;42.694;23.314;2023-04-01T15:47:19;5.38;;;3.42;;
70126;SDS011;57491;42.694;23.314;2023-04-01T15:50:01;7.53;;;1.70;;
70126;SDS011;57491;42.694;23.314;2023-04-01T15:52:54;8.02;;;1.60;;
70126;SDS011;57491;42.694;23.314;2023-04-01T15:55:32;2.17;;;1.45;;
70126;SDS011;57491;42.694;23.314;2023-04-01T15:58:15;2.95;;;1.52;;
70126;SDS011;57491;42.694;23.314;2023-04-01T16:01:02;4.38;;;2.50;;
70126;SDS011;57491;42.694;23.314;2023-04-01T16:03:43;3.22;;;2.50;;
70126;SDS011;57491;42.694;23.314;2023-04-01T16:06:20;3.15;;;2.63;;
70126;SDS011;57491;42.694;23.314;2023-04-01T16:09:12;3.10;;;2.47;;
70126;SDS011;57491;42.694;23.314;2023-04-01T16:11:51;4.45;;;2.38;;
70126;SDS011;57491;42.694;23.314;2023-04-01T16:14:26;4.45;;;2.72;;
70126;SDS011;57491;42.694;23.314;2023-04-01T16:17:11;4.53;;;2.75;;
70126;SDS011;57491;42.694;23.314;2023-04-01T16:19:53;5.05;;;2.97;;
70126;SDS011;57491;42.694;23.314;2023-04-01T16:22:28;3.78;;;2.50;;
70126;SDS011;57491;42.694;23.314;2023-04-01T16:25:05;4.72;;;2.67;;
70126;SDS011;57491;42.694;23.314;2023-04-01T16:27:46;3.67;;;2.45;;
70126;SDS011;57491;42.694;23.314;2023-04-01T16:30:25;5.82;;;3.45;;
70126;SDS011;57491;42.694;23.314;2023-04-01T16:33:01;5.65;;;3.38;;
70126;SDS011;57491;42.694;23.314;2023-04-01T16:35:35;9.00;;;4.32;;
70126;SDS011;57491;42.694;23.314;2023-04-01T16:38:10;6.53;;;4.75;;
70126;SDS011;57491;42.694;23.314;2023-04-01T16:40:46;7.63;;;4.38;;
70126;SDS011;57491;42.694;23.314;2023-04-01T16:43:20;6.57;;;3.60;;